Time;durP1;ratioP1;P1;durP2;ratioP2;P2;SDS_P1;SDS_P2;PMS_P1;PMS_P2;Temp;Humidity;BMP_temperature;BMP_pressure;BME280_temperature;BME280_humidity;BME280_pressure;Samples;Min_cycle;Max_cycle;Signal;HPM_P1;HPM_P2
2021/07/07 00:00:10;;;;;;;5.93;5.20;;;16.40;99.90;;;;;;5011704;28;20468;-68
2021/07/07 00:02:37;;;;;;;5.60;4.97;;;16.30;99.90;;;;;;5012515;28;20871;-68
2021/07/07 00:05:04;;;;;;;6.70;6.10;;;16.30;99.90;;;;;;5012322;28;20496;-68
2021/07/07 00:07:31;;;;;;;6.53;5.60;;;16.40;99.90;;;;;;5012552;28;20469;-68
2021/07/07 00:09:57;;;;;;;5.93;5.33;;;16.40;99.90;;;;;;5011634;28;20472;-68
2021/07/07 00:12:24;;;;;;;6.07;5.50;;;16.30;99.90;;;;;;5012287;28;20492;-68
2021/07/07 00:14:51;;;;;;;6.53;5.93;;;16.30;99.90;;;;;;5011994;28;20496;-68
2021/07/07 00:17:19;;;;;;;7.37;5.63;;;16.30;99.90;;;;;;5012296;28;20461;-68
2021/07/07 00:19:46;;;;;;;6.40;5.80;;;16.30;99.90;;;;;;5011621;28;20468;-68
2021/07/07 00:22:14;;;;;;;6.03;5.50;;;16.30;99.90;;;;;;5012132;28;20460;-68
2021/07/07 00:24:40;;;;;;;6.73;5.97;;;16.30;99.90;;;;;;5012307;28;20484;-68
2021/07/07 00:27:07;;;;;;;7.03;6.43;;;16.40;99.90;;;;;;5010908;28;20473;-68
2021/07/07 00:29:34;;;;;;;6.40;5.80;;;16.30;99.90;;;;;;5029827;28;20467;-68
2021/07/07 00:32:01;;;;;;;7.00;6.30;;;16.40;99.90;;;;;;5030937;28;20483;-68
2021/07/07 00:34:29;;;;;;;7.00;6.40;;;16.40;99.90;;;;;;5032062;28;20717;-68
2021/07/07 00:36:55;;;;;;;6.57;5.90;;;16.40;99.90;;;;;;5031726;28;20491;-68
2021/07/07 00:39:22;;;;;;;7.67;5.60;;;16.40;99.90;;;;;;5031126;28;20507;-68
2021/07/07 00:41:49;;;;;;;8.23;6.50;;;16.40;99.90;;;;;;5031728;28;20463;-68
2021/07/07 00:44:15;;;;;;;8.03;6.50;;;16.40;99.90;;;;;;5030485;28;20480;-68
2021/07/07 00:46:45;;;;;;;6.10;5.60;;;16.40;99.90;;;;;;5031169;28;20471;-67
2021/07/07 00:49:13;;;;;;;7.10;6.50;;;16.40;99.90;;;;;;5031112;28;20495;-67
2021/07/07 00:51:41;;;;;;;7.33;6.53;;;16.40;99.90;;;;;;5031137;28;20488;-67
2021/07/07 00:54:09;;;;;;;6.50;5.93;;;16.30;99.90;;;;;;5030836;28;20488;-68
2021/07/07 00:56:49;;;;;;;7.10;6.50;;;16.40;99.90;;;;;;5031062;28;20467;-67
2021/07/07 00:59:18;;;;;;;8.40;7.60;;;16.40;99.90;;;;;;5030554;28;20471;-67
2021/07/07 01:01:45;;;;;;;7.20;6.60;;;16.40;99.90;;;;;;5031411;28;20463;-67
2021/07/07 01:04:11;;;;;;;8.73;6.70;;;16.40;99.90;;;;;;5031289;28;20512;-67
2021/07/07 01:06:38;;;;;;;8.13;7.33;;;16.40;99.90;;;;;;5031504;28;20464;-67
2021/07/07 01:09:06;;;;;;;8.10;7.40;;;16.40;99.90;;;;;;5030903;28;20464;-67
2021/07/07 01:11:33;;;;;;;8.90;8.00;;;16.40;99.90;;;;;;5031147;28;20492;-67
2021/07/07 01:14:00;;;;;;;7.70;7.03;;;16.40;99.90;;;;;;5030745;28;20480;-68
2021/07/07 01:16:28;;;;;;;9.30;8.50;;;16.40;99.90;;;;;;5031454;28;20467;-68
2021/07/07 01:18:55;;;;;;;8.67;7.87;;;16.40;99.90;;;;;;5030445;28;20460;-67
2021/07/07 01:21:22;;;;;;;10.00;9.03;;;16.40;99.90;;;;;;5030828;28;20456;-67
2021/07/07 01:23:50;;;;;;;12.07;8.03;;;16.40;99.90;;;;;;5031072;28;21261;-67
2021/07/07 01:26:17;;;;;;;9.00;8.10;;;16.40;99.90;;;;;;5030574;28;20836;-67
2021/07/07 01:28:44;;;;;;;9.67;8.77;;;16.40;99.90;;;;;;5031250;28;20460;-67
2021/07/07 01:31:11;;;;;;;9.40;8.43;;;16.40;99.90;;;;;;5029996;28;20491;-68
2021/07/07 01:33:38;;;;;;;8.97;8.07;;;16.40;99.90;;;;;;5030828;28;20488;-67
2021/07/07 01:36:05;;;;;;;9.57;8.67;;;16.40;99.90;;;;;;5030449;28;20460;-68
2021/07/07 01:38:31;;;;;;;10.07;9.07;;;16.40;99.90;;;;;;5030982;28;20460;-68
2021/07/07 01:40:59;;;;;;;10.63;8.80;;;16.40;99.90;;;;;;5029953;28;20469;-67
2021/07/07 01:43:27;;;;;;;9.60;8.63;;;16.40;99.90;;;;;;5030541;28;20480;-68
2021/07/07 01:45:53;;;;;;;9.80;7.67;;;16.40;99.90;;;;;;5030538;28;20460;-67
2021/07/07 01:48:20;;;;;;;8.53;7.67;;;16.50;99.90;;;;;;5030260;28;20967;-67
2021/07/07 01:50:47;;;;;;;8.63;7.20;;;16.50;99.90;;;;;;5030016;28;20472;-67
2021/07/07 01:53:14;;;;;;;6.43;5.83;;;16.40;99.90;;;;;;5029962;28;20492;-67
2021/07/07 01:55:41;;;;;;;7.73;6.93;;;16.40;99.90;;;;;;5030115;28;20460;-67
2021/07/07 01:58:09;;;;;;;7.00;6.30;;;16.50;99.90;;;;;;5029476;28;20471;-68
2021/07/07 02:00:36;;;;;;;7.67;6.97;;;16.40;99.90;;;;;;5029537;28;20468;-68
2021/07/07 02:03:03;;;;;;;7.37;6.50;;;16.40;99.90;;;;;;5029471;28;20456;-67
2021/07/07 02:05:32;;;;;;;9.40;7.20;;;16.40;99.90;;;;;;5029488;28;20974;-68
2021/07/07 02:08:00;;;;;;;7.43;6.73;;;16.40;99.90;;;;;;5029702;28;20460;-67
2021/07/07 02:10:28;;;;;;;9.50;7.47;;;16.40;99.90;;;;;;5028690;28;20491;-67
2021/07/07 02:12:55;;;;;;;8.60;6.10;;;16.40;99.90;;;;;;5028376;28;20507;-67
2021/07/07 02:15:25;;;;;;;8.20;7.40;;;16.40;99.90;;;;;;5028718;28;20471;-67
2021/07/07 02:17:54;;;;;;;7.43;6.33;;;16.40;99.90;;;;;;5030087;28;20461;-67
2021/07/07 02:20:21;;;;;;;8.63;7.53;;;16.40;99.90;;;;;;5029393;28;20464;-68
2021/07/07 02:22:48;;;;;;;7.83;7.03;;;16.30;99.90;;;;;;5029595;28;20456;-68
2021/07/07 02:25:17;;;;;;;9.33;7.30;;;16.40;99.90;;;;;;5029803;28;20483;-67
2021/07/07 02:27:44;;;;;;;9.03;7.37;;;16.40;99.90;;;;;;5029837;28;20475;-67
2021/07/07 02:30:13;;;;;;;7.93;6.50;;;16.40;99.90;;;;;;5029214;28;20460;-68
2021/07/07 02:32:41;;;;;;;6.97;5.80;;;16.40;99.90;;;;;;5029715;28;20491;-68
2021/07/07 02:35:11;;;;;;;7.63;6.40;;;16.40;99.90;;;;;;5029586;28;20492;-68
2021/07/07 02:37:38;;;;;;;7.00;6.23;;;16.40;99.90;;;;;;5029668;28;20467;-68
2021/07/07 02:40:07;;;;;;;6.90;6.20;;;16.40;99.90;;;;;;5029097;28;20475;-67
2021/07/07 02:42:34;;;;;;;8.20;5.60;;;16.40;99.90;;;;;;5029814;28;20839;-67
2021/07/07 02:45:01;;;;;;;7.43;5.53;;;16.40;99.90;;;;;;5029152;28;20491;-68
2021/07/07 02:47:28;;;;;;;6.10;5.50;;;16.40;99.90;;;;;;5029424;28;20472;-68
2021/07/07 02:49:56;;;;;;;6.40;5.70;;;16.30;99.90;;;;;;5028965;28;20468;-68
2021/07/07 02:52:23;;;;;;;6.20;5.60;;;16.40;99.90;;;;;;5029635;28;20488;-68
2021/07/07 02:54:50;;;;;;;8.73;6.90;;;16.30;99.90;;;;;;5029391;28;20507;-67
2021/07/07 02:57:17;;;;;;;6.40;5.80;;;16.30;99.90;;;;;;5029383;28;20461;-67
2021/07/07 02:59:44;;;;;;;5.67;5.10;;;16.30;99.90;;;;;;5029187;28;20466;-67
2021/07/07 03:02:11;;;;;;;5.30;4.80;;;16.30;99.90;;;;;;5028988;28;20461;-67
2021/07/07 03:04:38;;;;;;;4.40;4.00;;;16.30;99.90;;;;;;5029336;28;20488;-68
2021/07/07 03:07:06;;;;;;;5.97;4.30;;;16.40;99.90;;;;;;5028638;28;20467;-67
2021/07/07 03:09:34;;;;;;;3.60;3.30;;;16.30;99.90;;;;;;5028944;28;20467;-67
2021/07/07 03:12:00;;;;;;;3.47;3.17;;;16.40;99.90;;;;;;5028795;28;20484;-67
2021/07/07 03:14:27;;;;;;;4.70;3.37;;;16.30;99.90;;;;;;5029126;28;20480;-68
2021/07/07 03:16:54;;;;;;;3.60;3.30;;;16.30;99.90;;;;;;5029010;28;20467;-67
2021/07/07 03:19:20;;;;;;;4.50;3.40;;;16.30;99.90;;;;;;5028425;28;20959;-67
2021/07/07 03:21:47;;;;;;;6.00;3.47;;;16.40;99.90;;;;;;5029210;28;20947;-67
2021/07/07 03:24:15;;;;;;;4.60;2.80;;;16.40;99.90;;;;;;5028384;28;20487;-67
2021/07/07 03:26:42;;;;;;;3.37;2.97;;;16.30;99.90;;;;;;5028754;28;20868;-67
2021/07/07 03:29:08;;;;;;;3.60;3.30;;;16.30;99.90;;;;;;5028291;28;20468;-68
2021/07/07 03:31:35;;;;;;;3.40;3.10;;;16.30;99.90;;;;;;5028392;28;20468;-67
2021/07/07 03:34:02;;;;;;;3.30;3.00;;;16.20;99.90;;;;;;5028056;28;20484;-67
2021/07/07 03:36:29;;;;;;;3.33;3.00;;;16.20;99.90;;;;;;5028374;28;20483;-68
2021/07/07 03:38:55;;;;;;;3.73;3.10;;;16.20;99.90;;;;;;5028171;28;20464;-68
2021/07/07 03:41:23;;;;;;;6.20;3.03;;;16.20;99.90;;;;;;5027726;28;20948;-68
2021/07/07 03:43:50;;;;;;;2.77;2.40;;;16.20;99.90;;;;;;5028454;28;20480;-68
2021/07/07 03:46:17;;;;;;;2.83;2.53;;;16.20;99.90;;;;;;5028383;28;20468;-67
2021/07/07 03:48:44;;;;;;;2.50;2.30;;;16.20;99.90;;;;;;5026782;28;20557;-67
2021/07/07 03:51:11;;;;;;;2.97;2.20;;;16.10;99.90;;;;;;5027403;28;20472;-67
2021/07/07 03:53:38;;;;;;;2.47;2.27;;;16.10;99.90;;;;;;5020875;28;20493;-67
2021/07/07 03:56:05;;;;;;;2.37;2.17;;;16.10;99.90;;;;;;5025596;28;20826;-67
2021/07/07 03:58:33;;;;;;;2.60;2.40;;;16.10;99.90;;;;;;5028323;28;20986;-67
2021/07/07 04:01:00;;;;;;;3.57;2.20;;;16.10;99.90;;;;;;5027765;28;20842;-67
2021/07/07 04:03:26;;;;;;;2.50;2.10;;;16.10;99.90;;;;;;5028019;28;20487;-67
2021/07/07 04:05:53;;;;;;;3.90;2.43;;;16.00;99.90;;;;;;5028316;28;20858;-67
2021/07/07 04:08:20;;;;;;;2.30;2.10;;;16.10;99.90;;;;;;5028533;28;20460;-67
2021/07/07 04:10:46;;;;;;;3.03;2.30;;;16.10;99.90;;;;;;5028156;28;20839;-68
2021/07/07 04:13:13;;;;;;;3.40;2.20;;;16.10;99.90;;;;;;5027487;28;20498;-68
2021/07/07 04:15:41;;;;;;;2.30;2.10;;;16.10;99.90;;;;;;5028777;28;20466;-67
2021/07/07 04:18:09;;;;;;;2.63;2.33;;;16.10;99.90;;;;;;5028193;28;20632;-67
2021/07/07 04:20:36;;;;;;;4.07;2.40;;;16.10;99.90;;;;;;5031174;28;20460;-66
2021/07/07 04:23:03;;;;;;;2.67;2.47;;;16.10;99.90;;;;;;5031250;28;20515;-67
2021/07/07 04:25:30;;;;;;;2.93;2.20;;;16.10;99.90;;;;;;5032277;28;20991;-67
2021/07/07 04:27:57;;;;;;;2.57;2.37;;;16.10;99.90;;;;;;5031867;28;20467;-67
2021/07/07 04:30:23;;;;;;;3.43;2.40;;;16.10;99.90;;;;;;5031261;28;20974;-67
2021/07/07 04:32:51;;;;;;;2.87;2.67;;;16.10;99.90;;;;;;5030615;28;20499;-67
2021/07/07 04:35:19;;;;;;;2.73;2.53;;;16.10;99.90;;;;;;5029302;28;20464;-67
2021/07/07 04:37:48;;;;;;;2.80;2.60;;;16.10;99.90;;;;;;5031390;28;20471;-67
2021/07/07 04:40:16;;;;;;;2.60;2.40;;;16.10;99.90;;;;;;5030868;28;20471;-68
2021/07/07 04:42:43;;;;;;;3.60;2.60;;;16.10;99.90;;;;;;5031668;28;20460;-67
2021/07/07 04:45:10;;;;;;;8.53;2.97;;;16.10;99.90;;;;;;5031237;28;20484;-67
2021/07/07 04:47:37;;;;;;;6.63;3.10;;;16.10;99.90;;;;;;5031416;28;20479;-67
2021/07/07 04:50:08;;;;;;;3.20;2.90;;;16.10;99.90;;;;;;5030626;28;20466;-67
2021/07/07 04:52:35;;;;;;;3.77;3.37;;;16.10;99.90;;;;;;5031116;28;20476;-67
2021/07/07 04:55:02;;;;;;;5.20;2.80;;;16.10;99.90;;;;;;5030965;28;20480;-67
2021/07/07 04:57:40;;;;;;;3.17;2.10;;;16.00;99.90;;;;;;5031021;28;20548;-67
2021/07/07 05:00:08;;;;;;;3.00;2.07;;;16.00;99.90;;;;;;5030542;28;20546;-67
2021/07/07 05:02:35;;;;;;;2.30;2.10;;;16.00;99.90;;;;;;5051104;28;21008;-67
2021/07/07 05:05:01;;;;;;;1.87;1.77;;;15.90;99.90;;;;;;5050401;28;20486;-67
2021/07/07 05:07:29;;;;;;;2.80;2.47;;;15.90;99.90;;;;;;5050930;28;20951;-67
2021/07/07 05:09:56;;;;;;;6.23;2.30;;;15.90;99.90;;;;;;5049750;28;20470;-67
2021/07/07 05:12:23;;;;;;;2.40;2.20;;;15.80;99.90;;;;;;5050698;28;20487;-68
2021/07/07 05:14:50;;;;;;;2.37;2.17;;;15.80;99.90;;;;;;5050704;28;20479;-68
2021/07/07 05:17:16;;;;;;;2.87;1.70;;;15.80;99.90;;;;;;5050179;28;21306;-68
2021/07/07 05:19:43;;;;;;;2.90;2.10;;;15.80;99.90;;;;;;5049773;28;20832;-68
2021/07/07 05:22:10;;;;;;;2.27;2.00;;;15.80;99.90;;;;;;5049906;28;20547;-68
2021/07/07 05:24:38;;;;;;;2.73;2.43;;;15.80;99.90;;;;;;5050496;28;20517;-67
2021/07/07 05:27:05;;;;;;;2.93;2.37;;;15.80;99.90;;;;;;5049838;28;20951;-67
2021/07/07 05:29:32;;;;;;;2.33;2.13;;;15.80;99.90;;;;;;5049474;28;20459;-68
2021/07/07 05:31:59;;;;;;;2.97;2.23;;;15.90;99.90;;;;;;5050165;28;20467;-67
2021/07/07 05:34:26;;;;;;;5.93;2.60;;;15.90;99.90;;;;;;5049660;28;20487;-67
2021/07/07 05:36:53;;;;;;;3.53;3.17;;;15.80;99.90;;;;;;5050030;28;20869;-68
2021/07/07 05:39:19;;;;;;;3.30;3.00;;;15.90;99.90;;;;;;5049644;28;20467;-67
2021/07/07 05:41:47;;;;;;;2.87;2.50;;;15.90;99.90;;;;;;5050230;28;20467;-68
2021/07/07 05:44:14;;;;;;;4.43;2.73;;;15.90;99.90;;;;;;5029765;28;20476;-67
2021/07/07 05:46:41;;;;;;;4.27;2.60;;;16.00;99.90;;;;;;5024242;28;20479;-67
2021/07/07 05:49:07;;;;;;;3.00;2.73;;;16.00;99.90;;;;;;5122475;22;20503;-68
2021/07/07 05:51:34;;;;;;;4.87;2.87;;;16.00;99.90;;;;;;5053230;28;20455;-68
2021/07/07 05:54:01;;;;;;;3.30;2.67;;;16.00;99.90;;;;;;5052183;28;20494;-68
2021/07/07 05:56:28;;;;;;;2.90;2.63;;;16.00;99.90;;;;;;5056819;28;20474;-68
2021/07/07 05:58:56;;;;;;;3.60;2.67;;;16.00;99.90;;;;;;5066664;28;20808;-67
2021/07/07 06:01:22;;;;;;;4.40;3.60;;;16.00;99.90;;;;;;5068408;28;20455;-68
2021/07/07 06:03:49;;;;;;;4.77;3.10;;;16.00;99.90;;;;;;5069359;28;20482;-68
2021/07/07 06:06:16;;;;;;;5.60;3.80;;;16.00;99.90;;;;;;5069298;28;20455;-67
2021/07/07 06:08:42;;;;;;;5.07;4.20;;;16.00;99.90;;;;;;5069358;28;20459;-68
2021/07/07 06:11:10;;;;;;;3.67;3.37;;;16.00;99.90;;;;;;5068940;28;20466;-68
2021/07/07 06:13:37;;;;;;;3.97;3.53;;;16.10;99.90;;;;;;5068851;28;20494;-68
2021/07/07 06:16:05;;;;;;;3.70;3.20;;;16.10;99.90;;;;;;5069383;28;21186;-68
2021/07/07 06:18:32;;;;;;;2.90;2.70;;;16.10;99.90;;;;;;5068629;28;21054;-68
2021/07/07 06:20:59;;;;;;;4.00;2.90;;;16.10;99.90;;;;;;5068623;28;20458;-68
2021/07/07 06:23:26;;;;;;;4.17;2.83;;;16.10;99.90;;;;;;5069406;28;20477;-68
2021/07/07 06:25:52;;;;;;;4.03;2.43;;;16.10;99.90;;;;;;5070050;28;20956;-68
2021/07/07 06:28:19;;;;;;;2.93;2.63;;;16.10;99.90;;;;;;5069562;28;20469;-68
2021/07/07 06:30:46;;;;;;;3.57;3.03;;;16.10;99.90;;;;;;5068376;28;20466;-68
2021/07/07 06:33:14;;;;;;;4.83;3.50;;;16.20;99.90;;;;;;5068800;28;21068;-67
2021/07/07 06:35:41;;;;;;;3.40;2.43;;;16.20;99.90;;;;;;5068487;28;20468;-68
2021/07/07 06:38:08;;;;;;;2.17;1.97;;;16.20;99.90;;;;;;5069207;28;20485;-68
2021/07/07 06:40:34;;;;;;;2.70;2.17;;;16.20;99.90;;;;;;5068515;28;20455;-68
2021/07/07 06:43:01;;;;;;;3.57;2.60;;;16.20;99.90;;;;;;5067941;28;20455;-68
2021/07/07 06:45:29;;;;;;;3.10;2.63;;;16.30;99.90;;;;;;5069105;28;20461;-68
2021/07/07 06:47:56;;;;;;;2.47;2.27;;;16.30;99.90;;;;;;5068924;28;20513;-68
2021/07/07 06:50:24;;;;;;;2.73;2.53;;;16.30;99.90;;;;;;5068248;28;20455;-68
2021/07/07 06:52:51;;;;;;;4.27;2.90;;;16.30;99.90;;;;;;5068886;28;20461;-67
2021/07/07 06:55:21;;;;;;;3.00;2.70;;;16.30;99.90;;;;;;5069160;28;20463;-68
2021/07/07 06:57:47;;;;;;;3.23;2.57;;;16.30;99.90;;;;;;5059423;28;20459;-68
2021/07/07 07:00:16;;;;;;;3.77;2.43;;;16.30;99.90;;;;;;5047594;28;20466;-68
2021/07/07 07:02:45;;;;;;;3.00;2.70;;;16.20;99.90;;;;;;5028319;28;20932;-68
2021/07/07 07:05:14;;;;;;;3.60;3.03;;;16.30;99.90;;;;;;5030319;28;20457;-68
2021/07/07 07:07:43;;;;;;;3.30;2.83;;;16.20;99.90;;;;;;5047688;28;20455;-68
2021/07/07 07:10:11;;;;;;;2.77;2.57;;;16.30;99.90;;;;;;5047259;28;20455;-68
2021/07/07 07:12:40;;;;;;;2.30;2.10;;;16.20;99.90;;;;;;5045217;28;20998;-68
2021/07/07 07:15:10;;;;;;;2.37;2.17;;;16.20;99.90;;;;;;5047892;28;20803;-69
2021/07/07 07:17:38;;;;;;;2.53;2.33;;;16.20;99.90;;;;;;5047270;28;20947;-68
2021/07/07 07:20:07;;;;;;;2.83;2.60;;;16.20;99.90;;;;;;5027738;28;20894;-68
2021/07/07 07:22:34;;;;;;;2.83;2.60;;;16.20;99.90;;;;;;5027721;28;20461;-67
2021/07/07 07:25:02;;;;;;;3.70;2.80;;;16.30;99.90;;;;;;5044822;28;20853;-68
2021/07/07 07:27:29;;;;;;;3.20;2.90;;;16.20;99.90;;;;;;5047558;28;20471;-67
2021/07/07 07:29:56;;;;;;;3.20;2.90;;;16.30;99.90;;;;;;5047429;28;20451;-68
2021/07/07 07:32:22;;;;;;;5.50;2.30;;;16.30;99.90;;;;;;5047542;28;20462;-68
2021/07/07 07:34:49;;;;;;;7.37;2.43;;;16.30;99.90;;;;;;5037821;28;20495;-68
2021/07/07 07:37:22;;;;;;;2.90;2.53;;;16.30;99.90;;;;;;5053789;28;20457;-68
2021/07/07 07:39:51;;;;;;;3.83;2.40;;;16.40;99.90;;;;;;5058304;28;20455;-68
2021/07/07 07:42:20;;;;;;;5.40;2.97;;;16.40;99.90;;;;;;5054607;28;21049;-68
2021/07/07 07:44:48;;;;;;;2.57;2.37;;;16.50;99.90;;;;;;5057178;28;20557;-68
2021/07/07 07:47:16;;;;;;;3.70;2.90;;;16.50;99.90;;;;;;5064495;28;20459;-68
2021/07/07 07:49:43;;;;;;;2.50;2.17;;;16.50;99.90;;;;;;5065417;28;20458;-68
2021/07/07 07:52:11;;;;;;;4.70;2.70;;;16.50;99.90;;;;;;5047934;28;20463;-68
2021/07/07 07:54:37;;;;;;;3.93;3.00;;;16.50;99.90;;;;;;5050855;28;20564;-68
2021/07/07 07:57:04;;;;;;;3.50;2.70;;;16.40;99.90;;;;;;5051390;28;20550;-68
2021/07/07 07:59:33;;;;;;;3.57;2.70;;;16.50;99.90;;;;;;5051073;28;20491;-68
2021/07/07 08:01:59;;;;;;;3.00;2.20;;;16.50;99.90;;;;;;5051893;28;20464;-68
2021/07/07 08:04:26;;;;;;;3.33;2.80;;;16.60;99.90;;;;;;5051152;28;20989;-68
2021/07/07 08:06:53;;;;;;;2.90;2.33;;;16.60;99.90;;;;;;5051053;28;20866;-68
2021/07/07 08:09:19;;;;;;;2.50;1.90;;;16.60;99.90;;;;;;5050877;28;20577;-68
2021/07/07 08:11:47;;;;;;;3.47;2.20;;;16.60;99.90;;;;;;5058768;28;20947;-67
2021/07/07 08:14:14;;;;;;;2.17;1.97;;;16.60;99.90;;;;;;5060102;28;20573;-68
2021/07/07 08:16:42;;;;;;;3.47;2.33;;;16.70;99.90;;;;;;5061642;28;20465;-68
2021/07/07 08:19:09;;;;;;;4.73;2.10;;;16.70;99.90;;;;;;5067074;28;20455;-68
2021/07/07 08:21:36;;;;;;;3.70;2.47;;;16.70;99.90;;;;;;5071811;28;20465;-68
2021/07/07 08:24:03;;;;;;;3.90;1.80;;;16.70;99.90;;;;;;5071256;28;20974;-68
2021/07/07 08:26:30;;;;;;;2.30;2.10;;;16.70;99.90;;;;;;5071373;28;20462;-68
2021/07/07 08:28:58;;;;;;;2.37;2.17;;;16.60;99.90;;;;;;5071361;28;20462;-68
2021/07/07 08:31:25;;;;;;;3.87;2.60;;;16.70;99.90;;;;;;5070917;28;20755;-68
2021/07/07 08:33:54;;;;;;;5.40;2.80;;;16.70;99.90;;;;;;5071345;28;20585;-67
2021/07/07 08:36:23;;;;;;;3.70;2.33;;;16.70;99.90;;;;;;5071528;28;20470;-68
2021/07/07 08:38:49;;;;;;;3.53;2.20;;;16.70;99.90;;;;;;5071504;28;20629;-68
2021/07/07 08:41:16;;;;;;;3.97;2.00;;;16.70;99.90;;;;;;5070656;28;20466;-68
2021/07/07 08:43:44;;;;;;;2.90;2.33;;;16.60;99.90;;;;;;5071331;28;20481;-68
2021/07/07 08:46:11;;;;;;;3.63;2.30;;;16.70;99.90;;;;;;5071059;28;20466;-67
2021/07/07 08:48:38;;;;;;;4.23;1.90;;;16.70;99.90;;;;;;5071389;28;20675;-68
2021/07/07 08:51:07;;;;;;;1.93;1.77;;;16.70;99.90;;;;;;5070787;28;20871;-68
2021/07/07 08:53:33;;;;;;;4.23;2.60;;;16.70;99.90;;;;;;5070798;28;20487;-68
2021/07/07 08:56:00;;;;;;;2.30;2.10;;;16.70;99.90;;;;;;5071313;28;20463;-68
2021/07/07 08:58:27;;;;;;;2.63;2.00;;;16.80;99.90;;;;;;5070587;28;20466;-68
2021/07/07 09:00:58;;;;;;;2.60;2.07;;;16.80;99.90;;;;;;5063185;28;20521;-67
2021/07/07 09:03:24;;;;;;;3.27;1.60;;;16.90;99.90;;;;;;5050520;28;20513;-68
2021/07/07 09:05:54;;;;;;;3.17;2.37;;;17.00;99.90;;;;;;5050229;28;20467;-68
2021/07/07 09:08:27;;;;;;;2.70;2.50;;;17.00;99.90;;;;;;5051070;28;20467;-68
2021/07/07 09:10:55;;;;;;;5.23;2.63;;;17.10;99.90;;;;;;5051380;28;20464;-68
2021/07/07 09:13:23;;;;;;;3.60;2.50;;;17.10;99.90;;;;;;5050350;28;20498;-68
2021/07/07 09:15:50;;;;;;;5.40;2.40;;;17.10;99.90;;;;;;5051259;28;20471;-68
2021/07/07 09:18:22;;;;;;;3.00;2.50;;;17.20;99.90;;;;;;5051103;28;20463;-68
2021/07/07 09:20:50;;;;;;;4.30;2.63;;;17.20;99.90;;;;;;5059484;28;20477;-68
2021/07/07 09:23:20;;;;;;;2.30;2.10;;;17.20;99.90;;;;;;5058282;28;20462;-68
2021/07/07 09:25:54;;;;;;;2.90;2.00;;;17.30;99.90;;;;;;5046934;28;20227;-68
2021/07/07 09:28:24;;;;;;;3.00;2.33;;;17.30;99.90;;;;;;5045678;28;20569;-69
2021/07/07 09:30:51;;;;;;;2.20;2.00;;;17.20;99.90;;;;;;5043307;28;20468;-68
2021/07/07 09:33:18;;;;;;;2.13;1.93;;;17.20;99.90;;;;;;5047891;28;20483;-69
2021/07/07 09:35:45;;;;;;;2.20;2.00;;;17.10;99.90;;;;;;5048180;28;20481;-68
2021/07/07 09:38:12;;;;;;;3.23;1.87;;;17.10;99.90;;;;;;5048188;28;20466;-68
2021/07/07 09:40:43;;;;;;;2.80;2.00;;;17.20;99.90;;;;;;5051191;28;20455;-68
2021/07/07 09:43:12;;;;;;;1.73;1.63;;;17.10;99.90;;;;;;5060932;28;20486;-68
2021/07/07 09:45:44;;;;;;;2.30;1.87;;;17.10;99.90;;;;;;5054438;28;20859;-68
2021/07/07 09:48:12;;;;;;;2.37;2.13;;;17.10;99.90;;;;;;5059706;28;20846;-68
2021/07/07 09:50:41;;;;;;;2.10;1.90;;;17.10;99.90;;;;;;5056984;28;20462;-68
2021/07/07 09:53:10;;;;;;;3.93;1.90;;;17.10;99.90;;;;;;5043111;28;21071;-68
2021/07/07 09:55:38;;;;;;;2.10;1.90;;;17.10;99.90;;;;;;5046428;28;20565;-68
2021/07/07 09:58:05;;;;;;;1.60;1.50;;;17.10;99.90;;;;;;5059484;28;20462;-68
2021/07/07 10:00:38;;;;;;;2.13;1.93;;;17.20;99.90;;;;;;5066867;28;20458;-68
2021/07/07 10:03:06;;;;;;;1.97;1.80;;;17.20;99.90;;;;;;5064653;28;20454;-68
2021/07/07 10:05:39;;;;;;;1.90;1.77;;;17.20;99.90;;;;;;5049567;28;20462;-68
2021/07/07 10:08:08;;;;;;;1.80;1.70;;;17.20;99.90;;;;;;5048146;28;20455;-68
2021/07/07 10:10:36;;;;;;;2.57;1.97;;;17.20;99.90;;;;;;5046964;28;20467;-68
2021/07/07 10:13:04;;;;;;;2.03;1.63;;;17.20;99.90;;;;;;5047921;28;20814;-68
2021/07/07 10:15:32;;;;;;;3.57;2.03;;;17.20;99.90;;;;;;5047743;28;20479;-68
2021/07/07 10:18:02;;;;;;;2.00;1.80;;;17.20;99.90;;;;;;5047613;28;20467;-69
2021/07/07 10:20:29;;;;;;;2.23;2.03;;;17.30;99.90;;;;;;5047408;28;20464;-68
2021/07/07 10:22:57;;;;;;;2.00;1.60;;;17.30;99.90;;;;;;5047664;28;20964;-68
2021/07/07 10:25:26;;;;;;;1.57;1.47;;;17.30;99.90;;;;;;5047075;28;20824;-68
2021/07/07 10:27:56;;;;;;;1.83;1.70;;;17.30;99.90;;;;;;5047601;28;20469;-68
2021/07/07 10:30:47;;;;;;;3.00;2.03;;;17.30;99.90;;;;;;5046757;28;20467;-68
2021/07/07 10:33:16;;;;;;;1.70;1.60;;;17.30;99.90;;;;;;5047003;28;20592;-66
2021/07/07 10:35:43;;;;;;;2.43;2.23;;;17.30;99.90;;;;;;5047279;28;20494;-67
2021/07/07 10:38:10;;;;;;;2.23;1.83;;;17.40;99.90;;;;;;5047164;28;20467;-67
2021/07/07 10:40:40;;;;;;;5.40;2.03;;;17.50;99.90;;;;;;5046561;28;20470;-67
2021/07/07 10:43:09;;;;;;;1.60;1.50;;;17.60;99.90;;;;;;5047173;28;20562;-67
2021/07/07 10:45:40;;;;;;;1.60;1.50;;;17.70;99.90;;;;;;5046736;28;20470;-67
2021/07/07 10:48:30;;;;;;;1.80;1.70;;;17.70;99.90;;;;;;5046874;28;20490;-67
2021/07/07 10:50:59;;;;;;;2.00;1.77;;;17.70;99.90;;;;;;5046884;28;20819;-67
2021/07/07 10:53:28;;;;;;;2.27;1.80;;;17.70;99.90;;;;;;5046895;28;20479;-67
2021/07/07 10:55:55;;;;;;;1.93;1.70;;;17.80;99.90;;;;;;5046415;28;20483;-67
2021/07/07 10:58:30;;;;;;;3.30;1.80;;;17.80;99.90;;;;;;5046769;28;20857;-67
2021/07/07 11:00:57;;;;;;;1.93;1.83;;;17.80;99.90;;;;;;5046651;28;20553;-67
2021/07/07 11:03:38;;;;;;;1.90;1.80;;;17.90;99.90;;;;;;5046149;28;20486;-67
2021/07/07 11:06:25;;;;;;;1.73;1.63;;;17.90;99.90;;;;;;5027505;28;20448;-67
2021/07/07 11:09:05;;;;;;;1.73;1.63;;;17.90;99.90;;;;;;5026466;28;20587;-67
2021/07/07 11:11:32;;;;;;;1.70;1.53;;;18.00;99.90;;;;;;5026760;28;20463;-67
2021/07/07 11:14:09;;;;;;;2.03;1.83;;;18.00;99.90;;;;;;5026607;28;20947;-67
2021/07/07 11:16:45;;;;;;;2.10;2.00;;;18.10;99.90;;;;;;5026733;28;20471;-67
2021/07/07 11:19:42;;;;;;;2.57;2.10;;;18.10;99.90;;;;;;5026142;28;20491;-67
2021/07/07 11:22:10;;;;;;;1.97;1.87;;;18.10;99.90;;;;;;5026537;28;20460;-67
2021/07/07 11:24:37;;;;;;;1.60;1.50;;;18.10;99.90;;;;;;5026622;28;21029;-67
2021/07/07 11:27:05;;;;;;;1.73;1.63;;;18.10;99.90;;;;;;5025934;28;20460;-67
2021/07/07 11:29:32;;;;;;;2.00;1.80;;;18.20;99.90;;;;;;5029709;28;20460;-67
2021/07/07 11:31:59;;;;;;;1.80;1.70;;;18.20;99.90;;;;;;5029887;28;20483;-67
2021/07/07 11:34:26;;;;;;;2.70;1.77;;;18.30;99.90;;;;;;5030354;28;20503;-67
2021/07/07 11:36:54;;;;;;;1.83;1.50;;;18.40;99.90;;;;;;5030467;28;20464;-66
2021/07/07 11:39:22;;;;;;;1.97;1.80;;;18.40;99.90;;;;;;5029646;28;20970;-66
2021/07/07 11:42:04;;;;;;;4.67;2.20;;;18.40;99.90;;;;;;5030215;28;21017;-67
2021/07/07 11:44:39;;;;;;;1.63;1.53;;;18.50;99.90;;;;;;5030332;28;20828;-66
2021/07/07 11:47:06;;;;;;;1.60;1.50;;;18.40;99.90;;;;;;5030603;28;20491;-66
2021/07/07 11:49:33;;;;;;;1.97;1.53;;;18.40;99.90;;;;;;5029490;28;20475;-66
2021/07/07 11:52:04;;;;;;;3.43;1.80;;;18.50;99.90;;;;;;5142561;22;21056;-67
2021/07/07 11:54:46;;;;;;;1.50;1.40;;;18.50;99.90;;;;;;5070492;28;20527;-67
2021/07/07 11:57:13;;;;;;;1.87;1.70;;;18.60;99.90;;;;;;5069749;28;20501;-66
2021/07/07 11:59:39;;;;;;;1.90;1.80;;;18.60;99.90;;;;;;5070518;28;20464;-66
2021/07/07 12:02:06;;;;;;;3.10;1.80;;;18.60;99.90;;;;;;5069512;28;20846;-67
2021/07/07 12:04:33;;;;;;;1.87;1.70;;;18.70;99.90;;;;;;5070522;28;20475;-67
2021/07/07 12:07:00;;;;;;;1.60;1.50;;;18.90;99.90;;;;;;5070531;28;20465;-66
2021/07/07 12:09:31;;;;;;;1.60;1.50;;;19.00;99.90;;;;;;5069224;28;20458;-66
2021/07/07 12:11:59;;;;;;;1.80;1.70;;;19.10;99.90;;;;;;5070346;28;20556;-67
2021/07/07 12:14:29;;;;;;;1.67;1.57;;;19.20;99.90;;;;;;5069547;28;20482;-66
2021/07/07 12:16:57;;;;;;;1.50;1.40;;;19.20;99.90;;;;;;5070142;28;20469;-66
2021/07/07 12:19:24;;;;;;;1.60;1.50;;;19.20;99.90;;;;;;5069687;28;20469;-66
2021/07/07 12:21:52;;;;;;;1.77;1.67;;;19.20;99.90;;;;;;5070098;28;21044;-67
2021/07/07 12:24:21;;;;;;;3.40;1.60;;;19.10;99.90;;;;;;5069477;28;20482;-66
2021/07/07 12:26:52;;;;;;;2.73;1.47;;;19.10;99.90;;;;;;5069943;28;20473;-67
2021/07/07 12:29:21;;;;;;;1.70;1.50;;;19.10;99.90;;;;;;5069136;28;20466;-66
2021/07/07 12:31:50;;;;;;;1.43;1.33;;;19.10;99.90;;;;;;5069603;28;20891;-66
2021/07/07 12:34:19;;;;;;;1.90;1.60;;;19.00;99.90;;;;;;5069175;28;20489;-66
2021/07/07 12:36:53;;;;;;;1.40;1.30;;;19.00;99.90;;;;;;5069944;28;20466;-66
2021/07/07 12:39:21;;;;;;;2.70;1.50;;;19.00;99.90;;;;;;5067884;28;20961;-66
2021/07/07 12:41:55;;;;;;;2.53;1.40;;;19.10;99.90;;;;;;5069862;28;20463;-66
2021/07/07 12:44:27;;;;;;;2.90;1.90;;;19.10;99.90;;;;;;5069503;28;20490;-66
2021/07/07 12:46:57;;;;;;;1.60;1.50;;;19.10;99.90;;;;;;5069356;28;20532;-66
2021/07/07 12:49:57;;;;;;;1.67;1.53;;;19.20;99.90;;;;;;5069306;28;20458;-66